Ainsworth, Nebraska
Current Conditions -  °F | °C
As of 6:35 PM on Friday 24 Oct 2014 (Local Time) from KANW Reporting Station
Clear Clear  
Wind Chill: 69°   Ceiling: Unl
Heat Index: 69°   Visibility: 7mi
Dew Point: 37°   Wind: 0mph
Humidity: 31%   Direction: NA
Pressure: 29.99"   Gusts: NA
Location:  42.55°N, 99.86°W
Report Text: KANW 242335Z AUTO 00000KT 7SM CLR 20/03 A2999 RMK AO2 T02030027
Loading
Personal Weather Stations






























Interactive Weather Map
Tropical Storm Tracking
New forecast layout! Learn more

10-Day Weather Forecast

Advertisements
Track Severe Weather on mobile